createdAt,value
2023-06-20T00:00:09.178Z,19.81
2023-06-20T00:02:56.970Z,19.82
2023-06-20T00:05:24.892Z,19.80
2023-06-20T00:07:55.566Z,19.72
2023-06-20T00:10:23.290Z,19.72
2023-06-20T00:12:51.107Z,19.76
2023-06-20T00:15:27.171Z,19.74
2023-06-20T00:18:02.388Z,19.71
2023-06-20T00:20:30.958Z,19.65
2023-06-20T00:22:58.905Z,19.68
2023-06-20T00:25:26.598Z,19.67
2023-06-20T00:27:54.576Z,19.74
2023-06-20T00:30:22.095Z,19.71
2023-06-20T00:32:50.691Z,19.73
2023-06-20T00:35:18.873Z,19.63
2023-06-20T00:37:46.768Z,19.69
2023-06-20T00:40:14.272Z,19.68
2023-06-20T00:42:42.126Z,19.71
2023-06-20T00:45:30.135Z,19.73
2023-06-20T00:47:59.331Z,19.65
2023-06-20T00:50:28.572Z,19.67
2023-06-20T00:53:08.237Z,19.68
2023-06-20T00:55:37.020Z,19.87
2023-06-20T00:58:06.362Z,19.96
2023-06-20T01:00:35.790Z,19.94
2023-06-20T01:03:10.391Z,20.10
2023-06-20T01:05:38.962Z,20.14
2023-06-20T01:08:22.201Z,20.16
2023-06-20T01:11:06.838Z,20.21
2023-06-20T01:14:11.847Z,20.38
2023-06-20T01:16:52.586Z,20.37
2023-06-20T01:19:34.879Z,20.33
2023-06-20T01:22:09.655Z,20.25
2023-06-20T01:24:47.725Z,20.25
2023-06-20T01:27:24.327Z,20.37
2023-06-20T01:30:03.141Z,20.37
2023-06-20T01:32:36.725Z,20.43
2023-06-20T01:35:11.530Z,20.38
2023-06-20T01:37:41.485Z,20.30
2023-06-20T01:40:12.429Z,20.27
2023-06-20T01:42:41.485Z,20.23
2023-06-20T01:45:12.646Z,20.14
2023-06-20T01:47:42.065Z,20.15
2023-06-20T01:50:11.108Z,20.12
2023-06-20T01:52:41.008Z,20.07
2023-06-20T01:55:11.634Z,20.08
2023-06-20T01:57:41.208Z,20.05
2023-06-20T02:00:10.754Z,20.05
2023-06-20T02:02:46.909Z,20.20
2023-06-20T02:05:16.560Z,20.35
2023-06-20T02:07:46.350Z,20.37
2023-06-20T02:10:15.010Z,20.19
2023-06-20T02:12:44.876Z,20.25
2023-06-20T02:15:14.252Z,20.22
2023-06-20T02:17:42.376Z,20.08
2023-06-20T02:20:10.804Z,20.10
2023-06-20T02:22:41.608Z,19.95
2023-06-20T02:25:16.125Z,20.13
2023-06-20T02:27:44.120Z,20.11
2023-06-20T02:30:13.572Z,20.13
2023-06-20T02:32:44.462Z,20.26
2023-06-20T02:35:14.642Z,20.45
2023-06-20T02:37:45.079Z,20.48
2023-06-20T02:40:13.371Z,20.45
2023-06-20T02:42:42.028Z,20.45
2023-06-20T02:45:11.636Z,20.37
2023-06-20T02:48:08.721Z,20.44
2023-06-20T02:50:55.129Z,20.45
2023-06-20T02:53:44.005Z,20.55
2023-06-20T02:56:14.047Z,20.39
2023-06-20T02:58:46.770Z,20.32
2023-06-20T03:01:22.379Z,20.47
2023-06-20T03:03:53.395Z,20.43
2023-06-20T03:06:28.848Z,20.37
2023-06-20T03:09:00.637Z,20.35
2023-06-20T03:11:28.696Z,20.31
2023-06-20T03:13:56.264Z,20.34
2023-06-20T03:16:27.950Z,20.35
2023-06-20T03:18:55.963Z,20.33
2023-06-20T03:21:29.563Z,20.52
2023-06-20T03:24:01.658Z,20.71
2023-06-20T03:26:29.619Z,20.80
2023-06-20T03:28:58.088Z,20.75
2023-06-20T03:31:26.105Z,20.80
2023-06-20T03:33:53.715Z,20.74
2023-06-20T03:36:21.983Z,20.79
2023-06-20T03:38:49.576Z,20.86
2023-06-20T03:41:20.041Z,20.82
2023-06-20T03:43:47.846Z,20.84
2023-06-20T03:46:16.548Z,20.89
2023-06-20T03:48:44.310Z,20.88
2023-06-20T03:51:13.150Z,20.75
2023-06-20T03:53:40.852Z,20.84
2023-06-20T03:56:09.328Z,20.99
2023-06-20T03:58:37.503Z,20.96
2023-06-20T04:01:07.666Z,20.83
2023-06-20T04:03:35.450Z,20.93
2023-06-20T04:06:05.508Z,20.86
2023-06-20T04:08:33.042Z,20.94
2023-06-20T04:11:01.171Z,20.86
2023-06-20T04:13:29.600Z,20.94
2023-06-20T04:15:57.666Z,20.92
2023-06-20T04:18:25.197Z,20.94
2023-06-20T04:20:52.998Z,20.87
2023-06-20T04:23:20.782Z,20.91
2023-06-20T04:25:48.686Z,20.91
2023-06-20T04:28:18.769Z,21.07
2023-06-20T04:30:56.627Z,21.27
2023-06-20T04:33:24.832Z,21.33
2023-06-20T04:35:58.687Z,21.46
2023-06-20T04:38:31.974Z,21.57
2023-06-20T04:41:02.221Z,21.76
2023-06-20T04:43:30.329Z,21.82
2023-06-20T04:45:58.523Z,22.00
2023-06-20T04:48:30.610Z,22.37
2023-06-20T04:50:59.640Z,22.59
2023-06-20T04:53:29.908Z,22.76
2023-06-20T04:55:59.699Z,23.29
2023-06-20T04:58:29.673Z,24.00
2023-06-20T05:00:58.456Z,24.73
2023-06-20T05:03:26.295Z,25.34
2023-06-20T05:05:54.356Z,26.04
2023-06-20T05:08:22.078Z,25.72
2023-06-20T05:10:51.103Z,26.12
2023-06-20T05:13:18.644Z,26.58
2023-06-20T05:15:46.665Z,26.38
2023-06-20T05:18:14.240Z,26.38
2023-06-20T05:20:43.110Z,27.07
2023-06-20T05:23:10.721Z,28.90
2023-06-20T05:25:38.627Z,30.96
2023-06-20T05:28:06.993Z,33.34
2023-06-20T05:30:34.953Z,34.35
2023-06-20T05:33:02.560Z,35.21
2023-06-20T05:35:30.509Z,35.38
2023-06-20T05:37:57.992Z,34.40
2023-06-20T05:40:26.413Z,37.61
2023-06-20T05:42:54.208Z,36.41
2023-06-20T05:45:22.103Z,34.21
2023-06-20T05:47:49.742Z,36.48
2023-06-20T05:50:17.849Z,35.73
2023-06-20T05:52:45.398Z,30.95
2023-06-20T05:55:13.297Z,30.69
2023-06-20T05:57:40.895Z,31.11
2023-06-20T06:00:13.844Z,31.19
2023-06-20T06:02:47.813Z,31.63
2023-06-20T06:05:16.095Z,33.08
2023-06-20T06:07:43.744Z,35.19
2023-06-20T06:10:11.778Z,33.81
2023-06-20T06:12:40.108Z,30.60
2023-06-20T06:15:09.555Z,34.32
2023-06-20T06:17:37.166Z,37.93
2023-06-20T06:20:08.933Z,40.43
2023-06-20T06:22:36.619Z,40.14
2023-06-20T06:25:04.717Z,40.91
2023-06-20T06:27:32.288Z,40.65
2023-06-20T06:30:00.186Z,38.20
2023-06-20T06:32:29.231Z,41.75
2023-06-20T06:35:00.666Z,42.50
2023-06-20T06:37:29.154Z,44.36
2023-06-20T06:39:58.130Z,44.30
2023-06-20T06:42:26.817Z,40.83
2023-06-20T06:44:55.417Z,42.75
2023-06-20T06:47:22.959Z,39.94
2023-06-20T06:49:50.796Z,39.11
2023-06-20T06:52:19.043Z,39.60
2023-06-20T06:54:46.802Z,37.35
2023-06-20T06:57:14.423Z,37.02
2023-06-20T06:59:42.285Z,38.85
2023-06-20T07:02:09.878Z,38.89
2023-06-20T07:04:38.017Z,38.08
2023-06-20T07:07:05.986Z,37.49
2023-06-20T07:09:33.953Z,37.56
2023-06-20T07:12:01.477Z,40.02
2023-06-20T07:14:29.312Z,37.19
2023-06-20T07:17:05.173Z,37.78
2023-06-20T07:19:34.304Z,38.23
2023-06-20T07:22:03.880Z,39.45
2023-06-20T07:24:31.830Z,39.80
2023-06-20T07:26:59.340Z,37.47
2023-06-20T07:29:27.190Z,37.85
2023-06-20T07:31:54.671Z,38.41
2023-06-20T07:34:22.484Z,40.64
2023-06-20T07:36:50.135Z,38.71
2023-06-20T07:39:17.989Z,37.58
2023-06-20T07:41:45.526Z,37.92
2023-06-20T07:44:13.688Z,37.48
2023-06-20T07:46:41.232Z,37.08
2023-06-20T07:49:09.048Z,32.38
2023-06-20T07:51:37.966Z,31.53
2023-06-20T07:54:06.145Z,30.56
2023-06-20T07:56:34.463Z,32.55
2023-06-20T07:59:02.388Z,31.77
2023-06-20T08:01:29.978Z,29.90
2023-06-20T08:03:58.150Z,29.03
2023-06-20T08:06:26.135Z,29.44
2023-06-20T08:08:54.458Z,28.66
2023-06-20T08:11:25.717Z,30.58
2023-06-20T08:13:53.669Z,32.78
2023-06-20T08:16:21.380Z,32.54
2023-06-20T08:18:49.311Z,32.42
2023-06-20T08:21:16.829Z,33.68
2023-06-20T08:23:45.533Z,33.02
2023-06-20T08:26:14.183Z,34.46
2023-06-20T08:28:42.327Z,34.69
2023-06-20T08:31:10.006Z,34.42
2023-06-20T08:33:37.862Z,34.09
2023-06-20T08:36:05.919Z,33.94
2023-06-20T08:38:33.848Z,33.51
2023-06-20T08:41:02.819Z,32.03
2023-06-20T08:43:30.936Z,34.60
2023-06-20T08:45:58.573Z,34.99
2023-06-20T08:48:26.532Z,34.94
2023-06-20T08:50:54.108Z,32.14
2023-06-20T08:53:24.186Z,34.54
2023-06-20T08:55:53.854Z,32.48
2023-06-20T08:58:23.220Z,33.44
2023-06-20T09:00:50.930Z,35.71
2023-06-20T09:03:18.956Z,34.09
2023-06-20T09:05:48.090Z,34.73
2023-06-20T09:08:16.904Z,34.77
2023-06-20T09:10:48.447Z,36.36
2023-06-20T09:13:16.411Z,36.87
2023-06-20T09:15:44.531Z,35.03
2023-06-20T09:18:15.955Z,34.09
2023-06-20T09:20:45.027Z,32.56
2023-06-20T09:23:13.165Z,32.31
2023-06-20T09:25:41.759Z,33.04
2023-06-20T09:28:19.081Z,35.43
2023-06-20T09:30:49.725Z,32.98
2023-06-20T09:33:18.728Z,32.09
2023-06-20T09:35:46.277Z,31.47
2023-06-20T09:38:14.170Z,32.97
2023-06-20T09:40:46.672Z,31.57
2023-06-20T09:43:14.871Z,32.55
2023-06-20T09:45:42.493Z,34.04
2023-06-20T09:48:11.400Z,34.44
2023-06-20T09:50:40.173Z,34.47
2023-06-20T09:53:26.428Z,34.51
2023-06-20T09:55:56.897Z,34.93
2023-06-20T09:58:26.581Z,34.06
2023-06-20T10:00:55.692Z,32.63
2023-06-20T10:03:23.924Z,31.87
2023-06-20T10:05:53.836Z,31.40
2023-06-20T10:08:23.495Z,30.32
2023-06-20T10:10:51.640Z,31.32
2023-06-20T10:13:22.610Z,32.20
2023-06-20T10:15:50.536Z,32.90
2023-06-20T10:18:33.508Z,33.75
2023-06-20T10:21:02.489Z,34.06
2023-06-20T10:23:32.575Z,33.21
2023-06-20T10:26:03.923Z,33.24
2023-06-20T10:28:31.808Z,34.32
2023-06-20T10:31:01.952Z,34.44
2023-06-20T10:33:37.683Z,34.91
2023-06-20T10:36:08.247Z,32.18
2023-06-20T10:38:59.142Z,30.28
2023-06-20T10:41:28.793Z,31.26
2023-06-20T10:44:03.421Z,32.19
2023-06-20T10:46:43.111Z,32.76
2023-06-20T10:49:11.925Z,31.10
2023-06-20T10:51:47.181Z,31.76
2023-06-20T10:54:16.339Z,30.35
2023-06-20T10:56:48.212Z,30.73
2023-06-20T10:59:21.182Z,31.28
2023-06-20T11:01:49.014Z,30.79
2023-06-20T11:04:18.331Z,31.30
2023-06-20T11:06:46.257Z,31.58
2023-06-20T11:09:18.151Z,30.27
2023-06-20T11:11:45.962Z,30.18
2023-06-20T11:14:20.004Z,30.23
2023-06-20T11:16:48.941Z,29.18
2023-06-20T11:19:35.689Z,29.48
2023-06-20T11:22:05.221Z,28.68
2023-06-20T11:24:37.066Z,27.93
2023-06-20T11:27:31.380Z,27.79
2023-06-20T11:29:59.364Z,27.57
2023-06-20T11:32:26.991Z,27.26
2023-06-20T11:34:57.782Z,27.93
2023-06-20T11:37:25.645Z,28.43
2023-06-20T11:39:54.245Z,28.65
2023-06-20T11:42:21.954Z,28.98
2023-06-20T11:44:50.673Z,27.75
2023-06-20T11:47:18.405Z,27.43
2023-06-20T11:49:46.298Z,27.35
2023-06-20T11:52:14.004Z,27.01
2023-06-20T11:54:53.079Z,26.77
2023-06-20T11:57:27.990Z,26.43
2023-06-20T11:59:57.180Z,26.41
2023-06-20T12:02:28.404Z,26.56
2023-06-20T12:04:58.348Z,26.24
2023-06-20T12:07:26.587Z,26.09
2023-06-20T12:09:54.920Z,25.87
2023-06-20T12:12:32.458Z,25.66
2023-06-20T12:15:02.091Z,25.38
2023-06-20T12:17:30.065Z,25.44
2023-06-20T12:19:59.060Z,25.84
2023-06-20T12:22:26.695Z,25.77
2023-06-20T12:24:54.554Z,25.51
2023-06-20T12:27:22.160Z,25.58
2023-06-20T12:29:49.958Z,25.41
2023-06-20T12:32:17.551Z,25.88
2023-06-20T12:34:45.761Z,26.35
2023-06-20T12:37:13.337Z,25.99
2023-06-20T12:39:41.295Z,25.83
2023-06-20T12:42:09.503Z,25.82
2023-06-20T12:44:37.236Z,26.19
2023-06-20T12:47:05.045Z,26.19
2023-06-20T12:49:32.960Z,26.53
2023-06-20T12:52:00.442Z,26.66
2023-06-20T12:54:28.286Z,26.70
2023-06-20T12:56:55.813Z,26.13
2023-06-20T12:59:23.641Z,25.89
2023-06-20T13:01:51.273Z,25.88
2023-06-20T13:04:19.088Z,25.88
2023-06-20T13:06:46.945Z,26.15
2023-06-20T13:09:14.856Z,25.96
2023-06-20T13:11:43.204Z,25.94
2023-06-20T13:14:11.258Z,26.04
2023-06-20T13:16:38.814Z,25.77
2023-06-20T13:19:06.658Z,26.29
2023-06-20T13:21:35.909Z,26.25
2023-06-20T13:24:09.691Z,25.85
2023-06-20T13:26:37.710Z,26.16
2023-06-20T13:29:05.690Z,26.02
2023-06-20T13:31:34.422Z,26.11
2023-06-20T13:34:02.494Z,25.64
2023-06-20T13:36:30.048Z,25.17
2023-06-20T13:38:58.567Z,25.62
2023-06-20T13:41:26.202Z,25.62
2023-06-20T13:43:54.388Z,25.20
2023-06-20T13:46:22.284Z,25.43
2023-06-20T13:48:51.993Z,25.62
2023-06-20T13:51:19.734Z,25.20
2023-06-20T13:53:47.488Z,25.24
2023-06-20T13:56:15.013Z,25.19
2023-06-20T13:58:42.796Z,25.06
2023-06-20T14:01:10.493Z,25.28
2023-06-20T14:03:38.317Z,25.12
2023-06-20T14:06:05.893Z,25.14
2023-06-20T14:08:33.870Z,25.01
2023-06-20T14:11:01.764Z,24.97
2023-06-20T14:13:29.574Z,25.19
2023-06-20T14:15:57.235Z,25.13
2023-06-20T14:18:25.344Z,24.85
2023-06-20T14:20:52.907Z,24.83
2023-06-20T14:23:20.856Z,24.99
2023-06-20T14:25:50.176Z,25.22
2023-06-20T14:28:25.433Z,25.07
2023-06-20T14:30:53.295Z,25.34
2023-06-20T14:33:21.314Z,24.52
2023-06-20T14:35:48.894Z,24.38
2023-06-20T14:38:16.831Z,24.29
2023-06-20T14:40:44.378Z,24.02
2023-06-20T14:43:12.221Z,24.16
2023-06-20T14:45:41.451Z,24.07
2023-06-20T14:48:09.707Z,23.90
2023-06-20T14:50:47.571Z,24.08
2023-06-20T14:53:17.033Z,23.89
2023-06-20T14:55:44.771Z,24.36
2023-06-20T14:58:12.666Z,24.52
2023-06-20T15:00:40.641Z,24.39
2023-06-20T15:03:08.992Z,24.42
2023-06-20T15:05:36.702Z,24.46
2023-06-20T15:08:04.724Z,24.22
2023-06-20T15:10:32.241Z,24.21
2023-06-20T15:13:00.183Z,24.30
2023-06-20T15:15:28.020Z,24.49
2023-06-20T15:17:59.256Z,24.37
2023-06-20T15:20:27.302Z,23.88
2023-06-20T15:22:57.114Z,23.65
2023-06-20T15:25:26.273Z,23.71
2023-06-20T15:27:54.257Z,23.37
2023-06-20T15:30:21.856Z,23.52
2023-06-20T15:32:49.791Z,23.73
2023-06-20T15:35:17.475Z,23.97
2023-06-20T15:37:45.466Z,24.11
2023-06-20T15:40:13.425Z,24.02
2023-06-20T15:42:41.266Z,23.73
2023-06-20T15:45:09.131Z,23.90
2023-06-20T15:47:37.285Z,23.74
2023-06-20T15:50:05.384Z,23.48
2023-06-20T15:52:33.245Z,23.52
2023-06-20T15:55:00.977Z,23.34
2023-06-20T15:57:28.819Z,23.79
2023-06-20T15:59:56.371Z,23.94
2023-06-20T16:02:25.883Z,24.21
2023-06-20T16:04:53.520Z,23.72
2023-06-20T16:07:21.411Z,23.44
2023-06-20T16:09:49.001Z,23.13
2023-06-20T16:12:17.188Z,23.30
2023-06-20T16:14:46.301Z,23.66
2023-06-20T16:17:14.219Z,23.89
2023-06-20T16:19:41.869Z,23.68
2023-06-20T16:22:14.560Z,23.55
2023-06-20T16:24:43.305Z,23.69
2023-06-20T16:27:11.628Z,22.65
2023-06-20T16:29:40.178Z,22.78
2023-06-20T16:32:08.410Z,22.59
2023-06-20T16:34:36.451Z,22.71
2023-06-20T16:37:04.788Z,22.85
2023-06-20T16:39:32.301Z,22.78
2023-06-20T16:42:00.854Z,22.73
2023-06-20T16:44:28.529Z,22.69
2023-06-20T16:46:56.436Z,23.05
2023-06-20T16:49:24.033Z,23.14
2023-06-20T16:51:51.924Z,22.95
2023-06-20T16:54:19.521Z,23.13
2023-06-20T16:56:47.578Z,23.08
2023-06-20T16:59:15.229Z,23.03
2023-06-20T17:01:43.183Z,22.87
2023-06-20T17:04:10.822Z,22.69
2023-06-20T17:06:38.776Z,22.89
2023-06-20T17:09:06.364Z,22.91
2023-06-20T17:11:34.468Z,22.55
2023-06-20T17:14:02.052Z,22.76
2023-06-20T17:16:30.237Z,22.78
2023-06-20T17:18:57.792Z,22.85
2023-06-20T17:21:25.806Z,22.59
2023-06-20T17:23:54.441Z,22.28
2023-06-20T17:26:22.313Z,22.26
2023-06-20T17:28:50.137Z,22.38
2023-06-20T17:31:18.020Z,22.32
2023-06-20T17:33:46.263Z,22.44
2023-06-20T17:36:14.449Z,22.57
2023-06-20T17:38:42.044Z,22.77
2023-06-20T17:41:09.988Z,22.79
2023-06-20T17:43:37.589Z,22.77
2023-06-20T17:46:05.668Z,22.71
2023-06-20T17:48:33.440Z,22.36
2023-06-20T17:51:01.435Z,22.36
2023-06-20T17:53:29.181Z,22.25
2023-06-20T17:55:57.175Z,22.01
2023-06-20T17:58:24.831Z,22.06
2023-06-20T18:00:52.640Z,22.04
2023-06-20T18:03:20.396Z,21.97
2023-06-20T18:05:48.840Z,21.83
2023-06-20T18:08:16.434Z,22.02
2023-06-20T18:10:46.892Z,22.06
2023-06-20T18:13:14.541Z,22.05
2023-06-20T18:15:42.707Z,21.94
2023-06-20T18:18:10.358Z,21.83
2023-06-20T18:20:38.336Z,21.95
2023-06-20T18:23:06.896Z,21.96
2023-06-20T18:25:35.581Z,21.89
2023-06-20T18:30:32.856Z,21.96
2023-06-20T18:33:00.570Z,21.83
2023-06-20T18:35:28.821Z,21.77
2023-06-20T18:37:56.340Z,21.68
2023-06-20T18:40:24.246Z,21.70
2023-06-20T18:42:52.011Z,21.71
2023-06-20T18:45:19.845Z,21.69
2023-06-20T18:47:47.889Z,21.60
2023-06-20T18:50:16.066Z,21.54
2023-06-20T18:52:43.837Z,21.44
2023-06-20T18:55:11.769Z,21.52
2023-06-20T18:57:39.750Z,21.37
2023-06-20T19:00:08.317Z,21.48
2023-06-20T19:02:36.512Z,21.44
2023-06-20T19:05:04.914Z,21.45
2023-06-20T19:07:33.030Z,21.39
2023-06-20T19:10:01.075Z,21.39
2023-06-20T19:12:28.956Z,21.29
2023-06-20T19:14:57.109Z,21.29
2023-06-20T19:17:27.624Z,21.33
2023-06-20T19:19:56.159Z,21.23
2023-06-20T19:22:24.249Z,21.29
2023-06-20T19:24:52.245Z,21.28
2023-06-20T19:27:20.152Z,21.27
2023-06-20T19:29:48.145Z,21.17
2023-06-20T19:32:16.012Z,21.18
2023-06-20T19:34:44.177Z,21.11
2023-06-20T19:37:11.719Z,21.06
2023-06-20T19:39:39.568Z,20.99
2023-06-20T19:42:07.270Z,20.98
2023-06-20T19:44:35.890Z,21.02
2023-06-20T19:47:03.928Z,21.06
2023-06-20T19:49:31.535Z,21.06
2023-06-20T19:51:59.428Z,21.07
2023-06-20T19:54:26.964Z,20.97
2023-06-20T19:56:54.977Z,21.03
2023-06-20T19:59:22.641Z,20.98
2023-06-20T20:01:50.509Z,20.99
2023-06-20T20:04:18.084Z,21.01
2023-06-20T20:06:45.988Z,21.04
2023-06-20T20:09:16.413Z,21.09
2023-06-20T20:11:44.907Z,21.04
2023-06-20T20:14:12.724Z,20.94
2023-06-20T20:16:40.920Z,20.88
2023-06-20T20:19:08.654Z,20.95
2023-06-20T20:21:36.788Z,20.93
2023-06-20T20:24:04.581Z,20.95
2023-06-20T20:26:32.555Z,21.00
2023-06-20T20:29:00.114Z,21.02
2023-06-20T20:31:28.077Z,21.06
2023-06-20T20:33:55.634Z,20.98
2023-06-20T20:36:23.471Z,20.90
2023-06-20T20:38:51.502Z,20.87
2023-06-20T20:41:21.224Z,20.97
2023-06-20T20:43:48.918Z,20.78
2023-06-20T20:46:20.814Z,20.75
2023-06-20T20:48:49.138Z,20.72
2023-06-20T20:51:17.267Z,20.78
2023-06-20T20:53:45.256Z,20.87
2023-06-20T20:56:13.447Z,20.95
2023-06-20T20:58:44.387Z,20.94
2023-06-20T21:01:12.657Z,20.92
2023-06-20T21:03:40.575Z,20.82
2023-06-20T21:06:10.272Z,20.49
2023-06-20T21:08:38.010Z,20.44
2023-06-20T21:11:06.037Z,20.63
2023-06-20T21:13:33.670Z,20.59
2023-06-20T21:16:01.565Z,20.66
2023-06-20T21:18:29.240Z,20.67
2023-06-20T21:20:57.122Z,20.65
2023-06-20T21:23:24.727Z,20.61
2023-06-20T21:25:52.892Z,20.60
2023-06-20T21:28:21.022Z,20.70
2023-06-20T21:30:49.821Z,20.65
2023-06-20T21:33:17.373Z,20.63
2023-06-20T21:35:45.312Z,20.53
2023-06-20T21:38:12.928Z,20.40
2023-06-20T21:40:40.701Z,20.30
2023-06-20T21:43:10.059Z,20.26
2023-06-20T21:45:38.829Z,20.17
2023-06-20T21:48:10.471Z,20.22
2023-06-20T21:50:39.540Z,20.26
2023-06-20T21:53:07.345Z,20.32
2023-06-20T21:55:35.209Z,20.29
2023-06-20T21:58:06.031Z,20.17
2023-06-20T22:00:36.146Z,19.99
2023-06-20T22:03:06.939Z,19.99
2023-06-20T22:05:34.986Z,19.97
2023-06-20T22:08:02.667Z,20.07
2023-06-20T22:10:30.512Z,20.07
2023-06-20T22:12:59.089Z,20.05
2023-06-20T22:15:27.048Z,20.14
2023-06-20T22:17:54.681Z,20.24
2023-06-20T22:20:22.527Z,20.30
2023-06-20T22:22:50.226Z,20.25
2023-06-20T22:25:19.402Z,20.27
2023-06-20T22:27:47.516Z,20.35
2023-06-20T22:30:15.889Z,20.40
2023-06-20T22:32:43.887Z,20.26
2023-06-20T22:35:11.883Z,20.12
2023-06-20T22:37:39.637Z,20.12
2023-06-20T22:40:08.858Z,20.09
2023-06-20T22:42:36.587Z,20.03
2023-06-20T22:45:07.483Z,19.97
2023-06-20T22:47:36.645Z,19.99
2023-06-20T22:50:04.860Z,19.95
2023-06-20T22:52:32.617Z,20.12
2023-06-20T22:55:00.433Z,20.09
2023-06-20T22:57:28.029Z,20.05
2023-06-20T22:59:55.865Z,19.97
2023-06-20T23:02:23.646Z,19.89
2023-06-20T23:04:51.452Z,19.91
2023-06-20T23:07:19.122Z,19.93
2023-06-20T23:09:46.926Z,20.01
2023-06-20T23:12:14.584Z,19.99
2023-06-20T23:14:42.555Z,20.03
2023-06-20T23:17:10.463Z,20.05
2023-06-20T23:19:38.235Z,20.09
2023-06-20T23:22:09.138Z,20.10
2023-06-20T23:24:37.008Z,20.14
2023-06-20T23:27:04.957Z,20.09
2023-06-20T23:29:32.948Z,19.98
2023-06-20T23:32:00.563Z,19.97
2023-06-20T23:34:30.958Z,19.97
2023-06-20T23:36:58.880Z,19.98
2023-06-20T23:39:26.674Z,19.98
2023-06-20T23:41:54.335Z,19.97
2023-06-20T23:44:22.134Z,20.03
2023-06-20T23:46:52.452Z,20.05
2023-06-20T23:49:21.051Z,20.26
2023-06-20T23:51:48.693Z,20.40
2023-06-20T23:54:17.208Z,20.55
2023-06-20T23:56:44.852Z,20.53
2023-06-20T23:59:14.994Z,20.53
